sensor_id;sensor_type;location;lat;lon;timestamp;P1;durP1;ratioP1;P2;durP2;ratioP2
32613;SDS011;19031;51.400;6.770;2023-11-22T00:00:09;25.15;;;15.77;;
32613;SDS011;19031;51.400;6.770;2023-11-22T00:02:37;25.63;;;16.67;;
32613;SDS011;19031;51.400;6.770;2023-11-22T00:05:03;23.30;;;15.98;;
32613;SDS011;19031;51.400;6.770;2023-11-22T00:07:30;25.80;;;14.52;;
32613;SDS011;19031;51.400;6.770;2023-11-22T00:09:58;24.40;;;14.48;;
32613;SDS011;19031;51.400;6.770;2023-11-22T00:12:26;24.25;;;14.73;;
32613;SDS011;19031;51.400;6.770;2023-11-22T00:14:53;26.58;;;15.80;;
32613;SDS011;19031;51.400;6.770;2023-11-22T00:17:18;21.63;;;14.52;;
32613;SDS011;19031;51.400;6.770;2023-11-22T00:19:44;24.90;;;16.70;;
32613;SDS011;19031;51.400;6.770;2023-11-22T00:22:10;23.60;;;15.45;;
32613;SDS011;19031;51.400;6.770;2023-11-22T00:24:41;24.08;;;14.60;;
32613;SDS011;19031;51.400;6.770;2023-11-22T00:27:07;22.73;;;14.65;;
32613;SDS011;19031;51.400;6.770;2023-11-22T00:29:35;28.17;;;15.07;;
32613;SDS011;19031;51.400;6.770;2023-11-22T00:32:00;23.75;;;14.05;;
32613;SDS011;19031;51.400;6.770;2023-11-22T00:34:26;26.08;;;15.35;;
32613;SDS011;19031;51.400;6.770;2023-11-22T00:36:52;24.40;;;14.40;;
32613;SDS011;19031;51.400;6.770;2023-11-22T00:39:18;23.10;;;13.85;;
32613;SDS011;19031;51.400;6.770;2023-11-22T00:41:44;24.45;;;14.40;;
32613;SDS011;19031;51.400;6.770;2023-11-22T00:44:10;20.67;;;14.07;;
32613;SDS011;19031;51.400;6.770;2023-11-22T00:46:36;21.58;;;13.68;;
32613;SDS011;19031;51.400;6.770;2023-11-22T00:49:02;23.38;;;14.98;;
32613;SDS011;19031;51.400;6.770;2023-11-22T00:51:29;27.73;;;14.88;;
32613;SDS011;19031;51.400;6.770;2023-11-22T00:53:56;25.75;;;15.63;;
32613;SDS011;19031;51.400;6.770;2023-11-22T00:56:25;26.73;;;14.88;;
32613;SDS011;19031;51.400;6.770;2023-11-22T00:58:52;26.80;;;14.73;;
32613;SDS011;19031;51.400;6.770;2023-11-22T01:01:18;21.33;;;13.60;;
32613;SDS011;19031;51.400;6.770;2023-11-22T01:03:44;21.85;;;14.10;;
32613;SDS011;19031;51.400;6.770;2023-11-22T01:06:11;24.30;;;13.77;;
32613;SDS011;19031;51.400;6.770;2023-11-22T01:08:37;22.80;;;12.98;;
32613;SDS011;19031;51.400;6.770;2023-11-22T01:11:03;25.55;;;12.20;;
32613;SDS011;19031;51.400;6.770;2023-11-22T01:13:30;19.85;;;12.18;;
32613;SDS011;19031;51.400;6.770;2023-11-22T01:15:56;20.25;;;12.43;;
32613;SDS011;19031;51.400;6.770;2023-11-22T01:18:22;17.98;;;11.57;;
32613;SDS011;19031;51.400;6.770;2023-11-22T01:20:47;21.02;;;11.93;;
32613;SDS011;19031;51.400;6.770;2023-11-22T01:23:14;19.77;;;11.65;;
32613;SDS011;19031;51.400;6.770;2023-11-22T01:25:39;17.90;;;11.05;;
32613;SDS011;19031;51.400;6.770;2023-11-22T01:28:05;19.35;;;11.75;;
32613;SDS011;19031;51.400;6.770;2023-11-22T01:30:32;23.15;;;11.68;;
32613;SDS011;19031;51.400;6.770;2023-11-22T01:32:58;23.80;;;13.23;;
32613;SDS011;19031;51.400;6.770;2023-11-22T01:35:24;19.50;;;12.63;;
32613;SDS011;19031;51.400;6.770;2023-11-22T01:37:50;22.02;;;12.95;;
32613;SDS011;19031;51.400;6.770;2023-11-22T01:40:16;20.17;;;11.60;;
32613;SDS011;19031;51.400;6.770;2023-11-22T01:42:41;24.40;;;14.60;;
32613;SDS011;19031;51.400;6.770;2023-11-22T01:45:07;23.50;;;13.23;;
32613;SDS011;19031;51.400;6.770;2023-11-22T01:47:35;29.23;;;14.02;;
32613;SDS011;19031;51.400;6.770;2023-11-22T01:50:02;20.60;;;13.43;;
32613;SDS011;19031;51.400;6.770;2023-11-22T01:52:30;25.33;;;13.32;;
32613;SDS011;19031;51.400;6.770;2023-11-22T01:54:56;22.98;;;13.68;;
32613;SDS011;19031;51.400;6.770;2023-11-22T01:57:22;22.63;;;12.93;;
32613;SDS011;19031;51.400;6.770;2023-11-22T01:59:48;25.13;;;14.02;;
32613;SDS011;19031;51.400;6.770;2023-11-22T02:02:14;26.10;;;13.88;;
32613;SDS011;19031;51.400;6.770;2023-11-22T02:04:39;21.27;;;12.45;;
32613;SDS011;19031;51.400;6.770;2023-11-22T02:07:05;23.58;;;11.70;;
32613;SDS011;19031;51.400;6.770;2023-11-22T02:09:31;26.90;;;14.60;;
32613;SDS011;19031;51.400;6.770;2023-11-22T02:11:57;31.33;;;16.63;;
32613;SDS011;19031;51.400;6.770;2023-11-22T02:14:23;28.15;;;16.83;;
32613;SDS011;19031;51.400;6.770;2023-11-22T02:16:48;30.45;;;14.77;;
32613;SDS011;19031;51.400;6.770;2023-11-22T02:19:15;24.77;;;15.68;;
32613;SDS011;19031;51.400;6.770;2023-11-22T02:21:42;28.70;;;16.20;;
32613;SDS011;19031;51.400;6.770;2023-11-22T02:24:08;29.67;;;13.88;;
32613;SDS011;19031;51.400;6.770;2023-11-22T02:26:34;26.33;;;14.32;;
32613;SDS011;19031;51.400;6.770;2023-11-22T02:29:01;23.30;;;14.80;;
32613;SDS011;19031;51.400;6.770;2023-11-22T02:31:29;26.50;;;14.73;;
32613;SDS011;19031;51.400;6.770;2023-11-22T02:33:55;24.42;;;13.95;;
32613;SDS011;19031;51.400;6.770;2023-11-22T02:36:21;28.67;;;14.30;;
32613;SDS011;19031;51.400;6.770;2023-11-22T02:38:47;25.58;;;14.10;;
32613;SDS011;19031;51.400;6.770;2023-11-22T02:41:13;29.33;;;15.23;;
32613;SDS011;19031;51.400;6.770;2023-11-22T02:43:39;21.02;;;12.73;;
32613;SDS011;19031;51.400;6.770;2023-11-22T02:46:08;22.65;;;13.30;;
32613;SDS011;19031;51.400;6.770;2023-11-22T02:48:33;23.55;;;14.90;;
32613;SDS011;19031;51.400;6.770;2023-11-22T02:50:59;19.55;;;11.23;;
32613;SDS011;19031;51.400;6.770;2023-11-22T02:53:25;30.20;;;15.57;;
32613;SDS011;19031;51.400;6.770;2023-11-22T02:55:52;24.85;;;14.20;;
32613;SDS011;19031;51.400;6.770;2023-11-22T02:58:20;30.48;;;16.02;;
32613;SDS011;19031;51.400;6.770;2023-11-22T03:00:46;31.23;;;15.45;;
32613;SDS011;19031;51.400;6.770;2023-11-22T03:03:13;29.60;;;16.40;;
32613;SDS011;19031;51.400;6.770;2023-11-22T03:05:38;24.90;;;14.40;;
32613;SDS011;19031;51.400;6.770;2023-11-22T03:08:05;29.88;;;16.95;;
32613;SDS011;19031;51.400;6.770;2023-11-22T03:10:32;25.70;;;14.82;;
32613;SDS011;19031;51.400;6.770;2023-11-22T03:12:58;32.83;;;16.55;;
32613;SDS011;19031;51.400;6.770;2023-11-22T03:15:24;31.85;;;16.77;;
32613;SDS011;19031;51.400;6.770;2023-11-22T03:17:49;31.75;;;16.13;;
32613;SDS011;19031;51.400;6.770;2023-11-22T03:20:15;27.45;;;16.08;;
32613;SDS011;19031;51.400;6.770;2023-11-22T03:22:41;36.22;;;17.50;;
32613;SDS011;19031;51.400;6.770;2023-11-22T03:25:09;32.08;;;16.67;;
32613;SDS011;19031;51.400;6.770;2023-11-22T03:27:35;33.80;;;16.27;;
32613;SDS011;19031;51.400;6.770;2023-11-22T03:30:02;36.05;;;19.13;;
32613;SDS011;19031;51.400;6.770;2023-11-22T03:32:28;30.15;;;17.10;;
32613;SDS011;19031;51.400;6.770;2023-11-22T03:34:54;26.73;;;15.05;;
32613;SDS011;19031;51.400;6.770;2023-11-22T03:37:20;28.67;;;14.95;;
32613;SDS011;19031;51.400;6.770;2023-11-22T03:39:46;29.85;;;15.82;;
32613;SDS011;19031;51.400;6.770;2023-11-22T03:42:14;44.83;;;18.40;;
32613;SDS011;19031;51.400;6.770;2023-11-22T03:44:41;30.17;;;15.38;;
32613;SDS011;19031;51.400;6.770;2023-11-22T03:47:07;34.13;;;16.70;;
32613;SDS011;19031;51.400;6.770;2023-11-22T03:49:33;33.60;;;18.25;;
32613;SDS011;19031;51.400;6.770;2023-11-22T03:51:58;39.13;;;19.58;;
32613;SDS011;19031;51.400;6.770;2023-11-22T03:54:24;31.70;;;16.13;;
32613;SDS011;19031;51.400;6.770;2023-11-22T03:56:50;26.38;;;15.07;;
32613;SDS011;19031;51.400;6.770;2023-11-22T03:59:15;31.13;;;15.95;;
32613;SDS011;19031;51.400;6.770;2023-11-22T04:01:41;34.45;;;16.67;;
32613;SDS011;19031;51.400;6.770;2023-11-22T04:04:07;27.60;;;15.07;;
32613;SDS011;19031;51.400;6.770;2023-11-22T04:06:34;28.60;;;15.48;;
32613;SDS011;19031;51.400;6.770;2023-11-22T04:09:00;31.13;;;16.20;;
32613;SDS011;19031;51.400;6.770;2023-11-22T04:11:26;28.70;;;15.60;;
32613;SDS011;19031;51.400;6.770;2023-11-22T04:13:54;31.40;;;15.55;;
32613;SDS011;19031;51.400;6.770;2023-11-22T04:16:20;38.25;;;16.83;;
32613;SDS011;19031;51.400;6.770;2023-11-22T04:18:46;36.90;;;15.98;;
32613;SDS011;19031;51.400;6.770;2023-11-22T04:21:11;29.15;;;16.42;;
32613;SDS011;19031;51.400;6.770;2023-11-22T04:23:37;38.25;;;17.42;;
32613;SDS011;19031;51.400;6.770;2023-11-22T04:26:03;29.17;;;15.55;;
32613;SDS011;19031;51.400;6.770;2023-11-22T04:28:29;31.17;;;15.13;;
32613;SDS011;19031;51.400;6.770;2023-11-22T04:30:55;28.38;;;15.30;;
32613;SDS011;19031;51.400;6.770;2023-11-22T04:33:22;26.95;;;13.65;;
32613;SDS011;19031;51.400;6.770;2023-11-22T04:35:48;30.63;;;15.55;;
32613;SDS011;19031;51.400;6.770;2023-11-22T04:38:14;30.30;;;15.65;;
32613;SDS011;19031;51.400;6.770;2023-11-22T04:40:40;28.95;;;15.05;;
32613;SDS011;19031;51.400;6.770;2023-11-22T04:43:07;33.58;;;16.85;;
32613;SDS011;19031;51.400;6.770;2023-11-22T04:45:33;32.42;;;14.38;;
32613;SDS011;19031;51.400;6.770;2023-11-22T04:47:59;26.70;;;13.60;;
32613;SDS011;19031;51.400;6.770;2023-11-22T04:50:25;32.53;;;16.65;;
32613;SDS011;19031;51.400;6.770;2023-11-22T04:52:50;27.67;;;13.27;;
32613;SDS011;19031;51.400;6.770;2023-11-22T04:55:16;23.88;;;14.32;;
32613;SDS011;19031;51.400;6.770;2023-11-22T04:57:43;31.90;;;15.35;;
32613;SDS011;19031;51.400;6.770;2023-11-22T05:00:10;32.70;;;14.63;;
32613;SDS011;19031;51.400;6.770;2023-11-22T05:02:36;32.42;;;15.15;;
32613;SDS011;19031;51.400;6.770;2023-11-22T05:05:02;27.40;;;14.50;;
32613;SDS011;19031;51.400;6.770;2023-11-22T05:07:28;23.40;;;13.07;;
32613;SDS011;19031;51.400;6.770;2023-11-22T05:09:54;20.45;;;12.05;;
32613;SDS011;19031;51.400;6.770;2023-11-22T05:12:20;23.20;;;13.68;;
32613;SDS011;19031;51.400;6.770;2023-11-22T05:14:46;24.60;;;13.25;;
32613;SDS011;19031;51.400;6.770;2023-11-22T05:17:11;28.60;;;13.90;;
32613;SDS011;19031;51.400;6.770;2023-11-22T05:19:37;26.33;;;14.43;;
32613;SDS011;19031;51.400;6.770;2023-11-22T05:22:03;24.35;;;14.40;;
32613;SDS011;19031;51.400;6.770;2023-11-22T05:24:29;24.90;;;14.15;;
32613;SDS011;19031;51.400;6.770;2023-11-22T05:26:55;22.13;;;12.57;;
32613;SDS011;19031;51.400;6.770;2023-11-22T05:29:20;27.60;;;13.52;;
32613;SDS011;19031;51.400;6.770;2023-11-22T05:31:46;25.42;;;12.98;;
32613;SDS011;19031;51.400;6.770;2023-11-22T05:34:12;26.80;;;14.15;;
32613;SDS011;19031;51.400;6.770;2023-11-22T05:36:38;32.80;;;15.05;;
32613;SDS011;19031;51.400;6.770;2023-11-22T05:39:03;21.65;;;13.35;;
32613;SDS011;19031;51.400;6.770;2023-11-22T05:41:29;24.83;;;13.85;;
32613;SDS011;19031;51.400;6.770;2023-11-22T05:43:55;25.40;;;14.00;;
32613;SDS011;19031;51.400;6.770;2023-11-22T05:46:21;32.75;;;14.32;;
32613;SDS011;19031;51.400;6.770;2023-11-22T05:48:53;30.45;;;15.38;;
32613;SDS011;19031;51.400;6.770;2023-11-22T05:51:19;30.20;;;14.15;;
32613;SDS011;19031;51.400;6.770;2023-11-22T05:53:46;22.00;;;12.45;;
32613;SDS011;19031;51.400;6.770;2023-11-22T05:56:11;25.17;;;11.70;;
32613;SDS011;19031;51.400;6.770;2023-11-22T05:58:38;22.67;;;12.18;;
32613;SDS011;19031;51.400;6.770;2023-11-22T06:01:07;24.05;;;12.18;;
32613;SDS011;19031;51.400;6.770;2023-11-22T06:03:36;23.05;;;12.43;;
32613;SDS011;19031;51.400;6.770;2023-11-22T06:06:03;30.02;;;13.75;;
32613;SDS011;19031;51.400;6.770;2023-11-22T06:08:29;23.42;;;12.32;;
32613;SDS011;19031;51.400;6.770;2023-11-22T06:10:55;25.42;;;12.13;;
32613;SDS011;19031;51.400;6.770;2023-11-22T06:13:23;22.85;;;13.00;;
32613;SDS011;19031;51.400;6.770;2023-11-22T06:15:48;28.52;;;13.27;;
32613;SDS011;19031;51.400;6.770;2023-11-22T06:18:15;19.60;;;11.52;;
32613;SDS011;19031;51.400;6.770;2023-11-22T06:20:41;24.38;;;12.35;;
32613;SDS011;19031;51.400;6.770;2023-11-22T06:23:07;25.77;;;13.05;;
32613;SDS011;19031;51.400;6.770;2023-11-22T06:25:33;18.23;;;9.90;;
32613;SDS011;19031;51.400;6.770;2023-11-22T06:28:00;22.42;;;12.25;;
32613;SDS011;19031;51.400;6.770;2023-11-22T06:30:26;19.90;;;11.52;;
32613;SDS011;19031;51.400;6.770;2023-11-22T06:32:52;20.70;;;12.07;;
32613;SDS011;19031;51.400;6.770;2023-11-22T06:35:18;26.05;;;13.00;;
32613;SDS011;19031;51.400;6.770;2023-11-22T06:37:44;20.02;;;10.90;;
32613;SDS011;19031;51.400;6.770;2023-11-22T06:40:10;21.05;;;11.88;;
32613;SDS011;19031;51.400;6.770;2023-11-22T06:42:39;25.52;;;13.30;;
32613;SDS011;19031;51.400;6.770;2023-11-22T06:45:06;22.15;;;11.65;;
32613;SDS011;19031;51.400;6.770;2023-11-22T06:47:35;23.20;;;12.48;;
32613;SDS011;19031;51.400;6.770;2023-11-22T06:50:01;21.83;;;10.55;;
32613;SDS011;19031;51.400;6.770;2023-11-22T06:52:29;25.63;;;11.77;;
32613;SDS011;19031;51.400;6.770;2023-11-22T06:54:54;23.40;;;12.32;;
32613;SDS011;19031;51.400;6.770;2023-11-22T06:57:20;23.85;;;11.98;;
32613;SDS011;19031;51.400;6.770;2023-11-22T06:59:53;22.13;;;10.82;;
32613;SDS011;19031;51.400;6.770;2023-11-22T07:02:18;26.50;;;11.88;;
32613;SDS011;19031;51.400;6.770;2023-11-22T07:04:44;20.77;;;10.93;;
32613;SDS011;19031;51.400;6.770;2023-11-22T07:07:10;22.40;;;12.20;;
32613;SDS011;19031;51.400;6.770;2023-11-22T07:09:36;26.73;;;11.52;;
32613;SDS011;19031;51.400;6.770;2023-11-22T07:12:02;20.00;;;10.48;;
32613;SDS011;19031;51.400;6.770;2023-11-22T07:14:30;21.10;;;11.05;;
32613;SDS011;19031;51.400;6.770;2023-11-22T07:16:57;23.17;;;11.63;;
32613;SDS011;19031;51.400;6.770;2023-11-22T07:19:23;19.10;;;10.57;;
32613;SDS011;19031;51.400;6.770;2023-11-22T07:21:48;20.13;;;10.52;;
32613;SDS011;19031;51.400;6.770;2023-11-22T07:24:14;22.25;;;12.13;;
32613;SDS011;19031;51.400;6.770;2023-11-22T07:26:40;27.50;;;12.88;;
32613;SDS011;19031;51.400;6.770;2023-11-22T07:29:07;28.55;;;12.98;;
32613;SDS011;19031;51.400;6.770;2023-11-22T07:31:33;24.38;;;12.15;;
32613;SDS011;19031;51.400;6.770;2023-11-22T07:33:59;27.73;;;13.55;;
32613;SDS011;19031;51.400;6.770;2023-11-22T07:36:26;25.52;;;14.05;;
32613;SDS011;19031;51.400;6.770;2023-11-22T07:38:53;30.65;;;13.93;;
32613;SDS011;19031;51.400;6.770;2023-11-22T07:41:19;30.05;;;13.30;;
32613;SDS011;19031;51.400;6.770;2023-11-22T07:43:45;25.55;;;13.48;;
32613;SDS011;19031;51.400;6.770;2023-11-22T07:46:10;25.05;;;12.65;;
32613;SDS011;19031;51.400;6.770;2023-11-22T07:48:39;24.52;;;12.80;;
32613;SDS011;19031;51.400;6.770;2023-11-22T07:51:06;27.80;;;13.65;;
32613;SDS011;19031;51.400;6.770;2023-11-22T07:53:32;25.88;;;13.95;;
32613;SDS011;19031;51.400;6.770;2023-11-22T07:56:01;23.40;;;12.52;;
32613;SDS011;19031;51.400;6.770;2023-11-22T07:58:29;26.42;;;13.60;;
32613;SDS011;19031;51.400;6.770;2023-11-22T08:00:56;25.77;;;13.65;;
32613;SDS011;19031;51.400;6.770;2023-11-22T08:03:23;26.58;;;14.13;;
32613;SDS011;19031;51.400;6.770;2023-11-22T08:05:50;26.95;;;13.40;;
32613;SDS011;19031;51.400;6.770;2023-11-22T08:08:19;30.02;;;14.23;;
32613;SDS011;19031;51.400;6.770;2023-11-22T08:10:45;33.92;;;14.00;;
32613;SDS011;19031;51.400;6.770;2023-11-22T08:13:12;23.48;;;11.98;;
32613;SDS011;19031;51.400;6.770;2023-11-22T08:15:38;24.08;;;11.70;;
32613;SDS011;19031;51.400;6.770;2023-11-22T08:18:04;28.90;;;12.52;;
32613;SDS011;19031;51.400;6.770;2023-11-22T08:20:30;27.70;;;12.00;;
32613;SDS011;19031;51.400;6.770;2023-11-22T08:22:56;24.00;;;11.48;;
32613;SDS011;19031;51.400;6.770;2023-11-22T08:25:22;21.35;;;10.98;;
32613;SDS011;19031;51.400;6.770;2023-11-22T08:27:47;23.42;;;11.88;;
32613;SDS011;19031;51.400;6.770;2023-11-22T08:30:13;21.52;;;10.95;;
32613;SDS011;19031;51.400;6.770;2023-11-22T08:32:41;19.95;;;10.43;;
32613;SDS011;19031;51.400;6.770;2023-11-22T08:35:08;20.40;;;11.90;;
32613;SDS011;19031;51.400;6.770;2023-11-22T08:37:34;22.48;;;10.35;;
32613;SDS011;19031;51.400;6.770;2023-11-22T08:40:02;21.35;;;11.23;;
32613;SDS011;19031;51.400;6.770;2023-11-22T08:42:31;20.13;;;10.63;;
32613;SDS011;19031;51.400;6.770;2023-11-22T08:44:58;22.42;;;11.20;;
32613;SDS011;19031;51.400;6.770;2023-11-22T08:47:23;18.33;;;10.73;;
32613;SDS011;19031;51.400;6.770;2023-11-22T08:49:49;19.73;;;10.80;;
32613;SDS011;19031;51.400;6.770;2023-11-22T08:52:14;18.23;;;10.68;;
32613;SDS011;19031;51.400;6.770;2023-11-22T08:54:40;20.70;;;10.77;;
32613;SDS011;19031;51.400;6.770;2023-11-22T08:57:06;19.83;;;11.30;;
32613;SDS011;19031;51.400;6.770;2023-11-22T08:59:32;22.75;;;10.52;;
32613;SDS011;19031;51.400;6.770;2023-11-22T09:02:03;19.50;;;10.50;;
32613;SDS011;19031;51.400;6.770;2023-11-22T09:04:32;19.88;;;9.95;;
32613;SDS011;19031;51.400;6.770;2023-11-22T09:06:58;19.80;;;10.35;;
32613;SDS011;19031;51.400;6.770;2023-11-22T09:09:24;20.20;;;10.88;;
32613;SDS011;19031;51.400;6.770;2023-11-22T09:11:56;17.58;;;9.90;;
32613;SDS011;19031;51.400;6.770;2023-11-22T09:14:22;18.60;;;10.07;;
32613;SDS011;19031;51.400;6.770;2023-11-22T09:16:48;22.67;;;10.98;;
32613;SDS011;19031;51.400;6.770;2023-11-22T09:19:19;19.73;;;9.60;;
32613;SDS011;19031;51.400;6.770;2023-11-22T09:21:48;18.85;;;11.10;;
32613;SDS011;19031;51.400;6.770;2023-11-22T09:24:13;17.13;;;8.07;;
32613;SDS011;19031;51.400;6.770;2023-11-22T09:26:39;19.58;;;9.27;;
32613;SDS011;19031;51.400;6.770;2023-11-22T09:29:05;18.27;;;8.98;;
32613;SDS011;19031;51.400;6.770;2023-11-22T09:31:31;19.42;;;8.90;;
32613;SDS011;19031;51.400;6.770;2023-11-22T09:33:56;18.30;;;8.30;;
32613;SDS011;19031;51.400;6.770;2023-11-22T09:36:22;14.75;;;7.93;;
32613;SDS011;19031;51.400;6.770;2023-11-22T09:38:52;15.98;;;6.90;;
32613;SDS011;19031;51.400;6.770;2023-11-22T09:41:17;12.73;;;6.85;;
32613;SDS011;19031;51.400;6.770;2023-11-22T09:43:43;14.45;;;7.60;;
32613;SDS011;19031;51.400;6.770;2023-11-22T09:46:14;12.55;;;6.88;;
32613;SDS011;19031;51.400;6.770;2023-11-22T09:48:40;11.48;;;6.07;;
32613;SDS011;19031;51.400;6.770;2023-11-22T09:56:16;11.10;;;6.22;;
32613;SDS011;19031;51.400;6.770;2023-11-22T09:58:44;13.43;;;5.55;;
32613;SDS011;19031;51.400;6.770;2023-11-22T10:01:13;13.52;;;5.93;;
32613;SDS011;19031;51.400;6.770;2023-11-22T10:03:39;11.10;;;5.43;;
32613;SDS011;19031;51.400;6.770;2023-11-22T10:06:05;14.82;;;5.70;;
32613;SDS011;19031;51.400;6.770;2023-11-22T10:08:32;11.60;;;4.78;;
32613;SDS011;19031;51.400;6.770;2023-11-22T10:10:58;8.05;;;4.80;;
32613;SDS011;19031;51.400;6.770;2023-11-22T10:13:25;9.32;;;5.40;;
32613;SDS011;19031;51.400;6.770;2023-11-22T10:15:51;9.43;;;5.47;;
32613;SDS011;19031;51.400;6.770;2023-11-22T10:18:18;15.20;;;5.28;;
32613;SDS011;19031;51.400;6.770;2023-11-22T10:20:47;11.38;;;5.53;;
32613;SDS011;19031;51.400;6.770;2023-11-22T10:23:15;10.18;;;5.28;;
32613;SDS011;19031;51.400;6.770;2023-11-22T10:25:49;14.73;;;5.82;;
32613;SDS011;19031;51.400;6.770;2023-11-22T10:28:20;8.88;;;5.00;;
32613;SDS011;19031;51.400;6.770;2023-11-22T10:30:46;11.80;;;4.65;;
32613;SDS011;19031;51.400;6.770;2023-11-22T10:33:14;6.95;;;4.40;;
32613;SDS011;19031;51.400;6.770;2023-11-22T10:35:44;11.07;;;4.80;;
32613;SDS011;19031;51.400;6.770;2023-11-22T10:38:13;12.68;;;5.07;;
32613;SDS011;19031;51.400;6.770;2023-11-22T10:40:40;8.93;;;4.88;;
32613;SDS011;19031;51.400;6.770;2023-11-22T10:43:06;12.98;;;4.72;;
32613;SDS011;19031;51.400;6.770;2023-11-22T10:45:35;10.95;;;4.20;;
32613;SDS011;19031;51.400;6.770;2023-11-22T10:48:02;10.32;;;4.57;;
32613;SDS011;19031;51.400;6.770;2023-11-22T10:50:28;13.57;;;4.07;;
32613;SDS011;19031;51.400;6.770;2023-11-22T10:52:54;8.52;;;3.67;;
32613;SDS011;19031;51.400;6.770;2023-11-22T10:55:31;10.55;;;4.18;;
32613;SDS011;19031;51.400;6.770;2023-11-22T10:58:01;8.55;;;4.40;;
32613;SDS011;19031;51.400;6.770;2023-11-22T11:00:29;7.40;;;3.88;;
32613;SDS011;19031;51.400;6.770;2023-11-22T11:03:01;15.10;;;5.05;;
32613;SDS011;19031;51.400;6.770;2023-11-22T11:05:34;7.25;;;3.50;;
32613;SDS011;19031;51.400;6.770;2023-11-22T11:08:09;12.70;;;5.25;;
32613;SDS011;19031;51.400;6.770;2023-11-22T11:10:41;11.43;;;5.35;;
32613;SDS011;19031;51.400;6.770;2023-11-22T11:13:07;7.78;;;3.13;;
32613;SDS011;19031;51.400;6.770;2023-11-22T11:15:38;4.97;;;2.72;;
32613;SDS011;19031;51.400;6.770;2023-11-22T11:18:05;4.63;;;2.38;;
32613;SDS011;19031;51.400;6.770;2023-11-22T11:20:32;4.53;;;1.77;;
32613;SDS011;19031;51.400;6.770;2023-11-22T11:23:01;6.10;;;2.30;;
32613;SDS011;19031;51.400;6.770;2023-11-22T11:25:27;5.50;;;2.40;;
32613;SDS011;19031;51.400;6.770;2023-11-22T11:27:56;10.40;;;2.58;;
32613;SDS011;19031;51.400;6.770;2023-11-22T11:32:57;5.80;;;2.78;;
32613;SDS011;19031;51.400;6.770;2023-11-22T11:38:21;5.45;;;3.28;;
32613;SDS011;19031;51.400;6.770;2023-11-22T11:40:47;6.40;;;3.53;;
32613;SDS011;19031;51.400;6.770;2023-11-22T11:43:38;6.72;;;3.72;;
32613;SDS011;19031;51.400;6.770;2023-11-22T11:46:11;6.78;;;3.80;;
32613;SDS011;19031;51.400;6.770;2023-11-22T11:48:42;6.80;;;3.42;;
32613;SDS011;19031;51.400;6.770;2023-11-22T11:51:08;5.53;;;3.60;;
32613;SDS011;19031;51.400;6.770;2023-11-22T11:53:34;8.73;;;3.75;;
32613;SDS011;19031;51.400;6.770;2023-11-22T11:56:01;6.60;;;3.42;;
32613;SDS011;19031;51.400;6.770;2023-11-22T11:58:27;10.40;;;4.03;;
32613;SDS011;19031;51.400;6.770;2023-11-22T12:00:54;8.68;;;4.07;;
32613;SDS011;19031;51.400;6.770;2023-11-22T12:03:20;10.23;;;5.22;;
32613;SDS011;19031;51.400;6.770;2023-11-22T12:05:46;6.65;;;3.83;;
32613;SDS011;19031;51.400;6.770;2023-11-22T12:08:14;10.95;;;5.28;;
32613;SDS011;19031;51.400;6.770;2023-11-22T12:10:43;13.50;;;5.13;;
32613;SDS011;19031;51.400;6.770;2023-11-22T12:13:19;9.07;;;2.40;;
32613;SDS011;19031;51.400;6.770;2023-11-22T12:15:46;8.95;;;2.92;;
32613;SDS011;19031;51.400;6.770;2023-11-22T12:18:12;5.20;;;2.10;;
32613;SDS011;19031;51.400;6.770;2023-11-22T12:20:38;4.55;;;2.80;;
32613;SDS011;19031;51.400;6.770;2023-11-22T12:23:04;8.02;;;3.50;;
32613;SDS011;19031;51.400;6.770;2023-11-22T12:25:31;6.65;;;2.95;;
32613;SDS011;19031;51.400;6.770;2023-11-22T12:27:58;6.65;;;2.42;;
32613;SDS011;19031;51.400;6.770;2023-11-22T12:30:33;4.85;;;2.50;;
32613;SDS011;19031;51.400;6.770;2023-11-22T12:33:06;5.40;;;2.13;;
32613;SDS011;19031;51.400;6.770;2023-11-22T12:35:33;2.97;;;1.73;;
32613;SDS011;19031;51.400;6.770;2023-11-22T12:38:00;2.63;;;1.40;;
32613;SDS011;19031;51.400;6.770;2023-11-22T12:40:30;3.85;;;1.52;;
32613;SDS011;19031;51.400;6.770;2023-11-22T12:42:56;2.25;;;1.23;;
32613;SDS011;19031;51.400;6.770;2023-11-22T12:45:23;4.47;;;1.52;;
32613;SDS011;19031;51.400;6.770;2023-11-22T12:47:50;3.50;;;1.73;;
32613;SDS011;19031;51.400;6.770;2023-11-22T12:50:29;4.72;;;1.50;;
32613;SDS011;19031;51.400;6.770;2023-11-22T12:53:14;4.05;;;1.60;;
32613;SDS011;19031;51.400;6.770;2023-11-22T12:55:50;6.43;;;2.22;;
32613;SDS011;19031;51.400;6.770;2023-11-22T12:58:17;4.95;;;1.70;;
32613;SDS011;19031;51.400;6.770;2023-11-22T13:00:44;3.40;;;1.75;;
32613;SDS011;19031;51.400;6.770;2023-11-22T13:03:11;3.47;;;1.58;;
32613;SDS011;19031;51.400;6.770;2023-11-22T13:05:40;3.60;;;1.50;;
32613;SDS011;19031;51.400;6.770;2023-11-22T13:08:07;2.55;;;1.05;;
32613;SDS011;19031;51.400;6.770;2023-11-22T13:10:36;2.20;;;1.27;;
32613;SDS011;19031;51.400;6.770;2023-11-22T13:13:01;2.53;;;1.25;;
32613;SDS011;19031;51.400;6.770;2023-11-22T13:15:27;3.33;;;1.20;;
32613;SDS011;19031;51.400;6.770;2023-11-22T13:17:53;4.32;;;1.25;;
32613;SDS011;19031;51.400;6.770;2023-11-22T13:20:26;1.90;;;1.10;;
32613;SDS011;19031;51.400;6.770;2023-11-22T13:22:52;1.73;;;1.00;;
32613;SDS011;19031;51.400;6.770;2023-11-22T13:25:19;2.42;;;1.10;;
32613;SDS011;19031;51.400;6.770;2023-11-22T13:27:48;2.03;;;0.82;;
32613;SDS011;19031;51.400;6.770;2023-11-22T13:30:17;5.75;;;1.15;;
32613;SDS011;19031;51.400;6.770;2023-11-22T13:32:45;2.42;;;1.17;;
32613;SDS011;19031;51.400;6.770;2023-11-22T13:35:12;4.45;;;1.45;;
32613;SDS011;19031;51.400;6.770;2023-11-22T13:37:42;9.15;;;1.63;;
32613;SDS011;19031;51.400;6.770;2023-11-22T13:40:12;3.25;;;1.30;;
32613;SDS011;19031;51.400;6.770;2023-11-22T13:42:43;3.78;;;1.50;;
32613;SDS011;19031;51.400;6.770;2023-11-22T13:45:10;7.50;;;1.98;;
32613;SDS011;19031;51.400;6.770;2023-11-22T13:47:40;5.68;;;1.80;;
32613;SDS011;19031;51.400;6.770;2023-11-22T13:50:09;3.25;;;1.73;;
32613;SDS011;19031;51.400;6.770;2023-11-22T13:52:38;8.55;;;1.90;;
32613;SDS011;19031;51.400;6.770;2023-11-22T13:55:03;3.80;;;1.80;;
32613;SDS011;19031;51.400;6.770;2023-11-22T13:57:33;3.53;;;1.73;;
32613;SDS011;19031;51.400;6.770;2023-11-22T13:59:58;6.38;;;1.45;;
32613;SDS011;19031;51.400;6.770;2023-11-22T14:02:24;4.22;;;1.50;;
32613;SDS011;19031;51.400;6.770;2023-11-22T14:04:49;6.10;;;2.08;;
32613;SDS011;19031;51.400;6.770;2023-11-22T14:07:15;2.95;;;1.40;;
32613;SDS011;19031;51.400;6.770;2023-11-22T14:09:41;7.07;;;1.30;;
32613;SDS011;19031;51.400;6.770;2023-11-22T14:12:10;4.20;;;1.10;;
32613;SDS011;19031;51.400;6.770;2023-11-22T14:14:36;4.63;;;1.60;;
32613;SDS011;19031;51.400;6.770;2023-11-22T14:17:01;3.28;;;1.50;;
32613;SDS011;19031;51.400;6.770;2023-11-22T14:19:27;4.28;;;1.73;;
32613;SDS011;19031;51.400;6.770;2023-11-22T14:21:52;4.57;;;1.90;;
32613;SDS011;19031;51.400;6.770;2023-11-22T14:24:18;3.10;;;2.00;;
32613;SDS011;19031;51.400;6.770;2023-11-22T14:26:44;4.57;;;2.10;;
32613;SDS011;19031;51.400;6.770;2023-11-22T14:29:13;3.78;;;2.00;;
32613;SDS011;19031;51.400;6.770;2023-11-22T14:31:39;6.88;;;2.58;;
32613;SDS011;19031;51.400;6.770;2023-11-22T14:34:05;5.65;;;3.25;;
32613;SDS011;19031;51.400;6.770;2023-11-22T14:36:30;8.90;;;2.80;;